Time,TemperatureF,DewpointF,PressureIn,WindDirection,WindDirectionDegrees,WindSpeedMPH,WindSpeedGustMPH,Humidity,HourlyPrecipIn,Conditions,Clouds,dailyrainin,SoftwareType,DateUTC
2013-07-30 00:00:00,64.4,62.6,30.05,SSE,158,1.8,1.8,94,0.00,,---,0.00,VWS V14.01,2013-07-30 05:00:00,
2013-07-30 00:05:00,64.4,62.6,30.05,SSE,158,3.4,3.4,94,0.00,,---,0.00,VWS V14.01,2013-07-30 05:05:00,
2013-07-30 00:10:00,64.4,62.9,30.04,SSE,158,3.4,3.4,95,0.00,,---,0.00,VWS V14.01,2013-07-30 05:10:00,
2013-07-30 00:15:00,64.4,62.6,30.04,SSE,158,2.7,2.7,94,0.00,,---,0.00,VWS V14.01,2013-07-30 05:15:00,
2013-07-30 00:20:00,64.4,62.6,30.04,ESE,112,3.6,3.6,94,0.00,,---,0.00,VWS V14.01,2013-07-30 05:20:00,
2013-07-30 00:25:00,64.4,62.9,30.04,SE,135,2.2,2.2,95,0.00,,---,0.00,VWS V14.01,2013-07-30 05:25:00,
2013-07-30 00:30:00,64.4,62.6,30.04,SSE,158,2.9,2.9,94,0.00,,---,0.00,VWS V14.01,2013-07-30 05:30:00,
2013-07-30 00:36:00,64.4,62.9,30.04,ESE,112,0.2,0.2,95,0.00,,---,0.00,VWS V14.01,2013-07-30 05:36:00,
2013-07-30 00:41:00,64.4,62.9,30.04,SE,135,2.0,2.0,95,0.00,,---,0.00,VWS V14.01,2013-07-30 05:41:00,
2013-07-30 00:46:00,64.4,62.9,30.04,SE,135,4.0,4.0,95,0.00,,---,0.00,VWS V14.01,2013-07-30 05:46:00,
2013-07-30 00:51:00,64.4,62.9,30.04,SE,135,4.3,4.3,95,0.00,,---,0.00,VWS V14.01,2013-07-30 05:51:00,
2013-07-30 00:56:00,64.4,62.9,30.04,ESE,112,1.8,1.8,95,0.00,,---,0.00,VWS V14.01,2013-07-30 05:56:00,
2013-07-30 01:01:00,64.4,62.9,30.04,SE,135,2.5,2.5,95,0.00,,---,0.00,VWS V14.01,2013-07-30 06:01:00,
2013-07-30 01:06:00,64.4,62.9,30.04,SE,135,0.9,0.9,95,0.00,,---,0.00,VWS V14.01,2013-07-30 06:06:00,
2013-07-30 01:11:00,64.4,62.9,30.04,SE,135,2.2,2.2,95,0.00,,---,0.00,VWS V14.01,2013-07-30 06:11:00,
2013-07-30 01:16:00,64.4,62.9,30.04,East,90,0.9,0.9,95,0.00,,---,0.00,VWS V14.01,2013-07-30 06:16:00,
2013-07-30 01:22:00,64.4,62.9,30.03,NNE,22,0.9,1.1,95,0.00,,---,0.00,VWS V14.01,2013-07-30 06:22:00,
2013-07-30 01:27:00,64.4,62.9,30.03,ESE,112,0.9,0.9,95,0.00,,---,0.00,VWS V14.01,2013-07-30 06:27:00,
2013-07-30 01:32:00,64.4,62.9,30.03,ESE,112,1.8,1.8,95,0.00,,---,0.00,VWS V14.01,2013-07-30 06:32:00,
2013-07-30 01:38:00,64.4,62.9,30.04,ESE,112,2.9,2.9,95,0.00,,---,0.00,VWS V14.01,2013-07-30 06:38:00,
2013-07-30 01:43:00,64.4,62.9,30.04,ESE,112,0.7,0.7,95,0.00,,---,0.00,VWS V14.01,2013-07-30 06:43:00,
2013-07-30 01:48:00,64.4,62.9,30.04,ESE,112,0.7,0.7,95,0.00,,---,0.00,VWS V14.01,2013-07-30 06:48:00,
2013-07-30 01:53:00,64.4,62.9,30.03,SSE,158,0.9,0.9,95,0.00,,---,0.00,VWS V14.01,2013-07-30 06:53:00,
2013-07-30 01:58:00,64.4,62.9,30.04,SSE,158,0.4,0.4,95,0.00,,---,0.00,VWS V14.01,2013-07-30 06:58:00,
2013-07-30 02:03:00,64.4,62.9,30.04,ESE,112,0.2,0.2,95,0.00,,---,0.00,VWS V14.01,2013-07-30 07:03:00,
2013-07-30 02:08:00,64.4,62.9,30.03,East,90,2.0,2.0,95,0.00,,---,0.00,VWS V14.01,2013-07-30 07:08:00,
2013-07-30 02:13:00,64.4,62.9,30.03,East,90,1.1,1.1,95,0.00,,---,0.00,VWS V14.01,2013-07-30 07:13:00,
2013-07-30 02:18:00,64.4,62.9,30.03,East,90,0.4,0.4,95,0.00,,---,0.00,VWS V14.01,2013-07-30 07:18:00,
2013-07-30 02:24:00,64.4,62.9,30.03,East,90,0.4,0.4,95,0.00,,---,0.00,VWS V14.01,2013-07-30 07:24:00,
2013-07-30 02:29:00,64.4,62.9,30.03,ENE,68,2.2,2.2,95,0.00,,---,0.00,VWS V14.01,2013-07-30 07:29:00,
2013-07-30 02:34:00,64.4,62.9,30.03,East,90,1.1,1.1,95,0.00,,---,0.00,VWS V14.01,2013-07-30 07:34:00,
2013-07-30 02:39:00,64.4,62.9,30.03,SE,135,0.4,0.4,95,0.00,,---,0.00,VWS V14.01,2013-07-30 07:39:00,
2013-07-30 02:44:00,64.4,62.9,30.03,SE,135,0.4,0.4,95,0.00,,---,0.00,VWS V14.01,2013-07-30 07:44:00,
2013-07-30 02:49:00,64.4,62.9,30.03,SE,135,0.0,0.2,95,0.00,,---,0.00,VWS V14.01,2013-07-30 07:49:00,
2013-07-30 02:54:00,64.4,62.9,30.03,ESE,112,1.1,1.1,95,0.01,,---,0.01,VWS V14.01,2013-07-30 07:54:00,
2013-07-30 02:59:00,64.4,62.9,30.03,SE,135,2.5,2.5,95,0.01,,---,0.01,VWS V14.01,2013-07-30 07:59:00,
2013-07-30 03:04:00,64.4,62.9,30.03,East,90,0.2,0.2,95,0.01,,---,0.01,VWS V14.01,2013-07-30 08:04:00,
2013-07-30 03:09:00,64.4,62.9,30.03,ESE,112,1.1,1.1,95,0.01,,---,0.01,VWS V14.01,2013-07-30 08:09:00,
2013-07-30 03:14:00,64.4,62.9,30.03,East,90,0.4,0.4,95,0.01,,---,0.01,VWS V14.01,2013-07-30 08:14:00,
2013-07-30 03:20:00,64.6,63.1,30.03,ENE,68,1.8,1.8,95,0.01,,---,0.01,VWS V14.01,2013-07-30 08:20:00,
2013-07-30 03:25:00,64.6,62.8,30.03,ENE,68,0.7,0.7,94,0.01,,---,0.01,VWS V14.01,2013-07-30 08:25:00,
2013-07-30 03:30:00,64.6,62.8,30.04,SE,135,1.1,1.1,94,0.01,,---,0.01,VWS V14.01,2013-07-30 08:30:00,
2013-07-30 03:35:00,64.6,62.8,30.03,ESE,112,0.7,0.7,94,0.01,,---,0.01,VWS V14.01,2013-07-30 08:35:00,
2013-07-30 03:40:00,64.6,63.1,30.03,ESE,112,0.7,0.7,95,0.01,,---,0.01,VWS V14.01,2013-07-30 08:40:00,
2013-07-30 03:45:00,64.6,63.1,30.03,ESE,112,1.8,1.8,95,0.01,,---,0.01,VWS V14.01,2013-07-30 08:45:00,
2013-07-30 03:50:00,64.6,63.1,30.04,ESE,112,1.1,1.1,95,0.01,,---,0.01,VWS V14.01,2013-07-30 08:50:00,
2013-07-30 03:55:00,64.6,63.1,30.04,SE,135,0.4,1.8,95,0.00,,---,0.01,VWS V14.01,2013-07-30 08:55:00,
2013-07-30 04:00:00,64.6,63.1,30.04,SE,135,3.4,3.4,95,0.00,,---,0.01,VWS V14.01,2013-07-30 09:00:00,
2013-07-30 04:05:00,64.6,63.1,30.03,East,90,0.4,0.4,95,0.00,,---,0.01,VWS V14.01,2013-07-30 09:05:00,
2013-07-30 04:11:00,64.8,63.3,30.03,SE,135,1.1,1.1,95,0.00,,---,0.01,VWS V14.01,2013-07-30 09:11:00,
2013-07-30 04:16:00,64.6,63.1,30.03,SE,135,0.2,0.2,95,0.00,,---,0.01,VWS V14.01,2013-07-30 09:16:00,
2013-07-30 04:21:00,64.6,63.1,30.03,ESE,112,0.2,0.2,95,0.00,,---,0.01,VWS V14.01,2013-07-30 09:21:00,
2013-07-30 04:26:00,64.6,63.1,30.03,ESE,112,2.5,2.5,95,0.00,,---,0.01,VWS V14.01,2013-07-30 09:26:00,
2013-07-30 04:31:00,64.6,63.1,30.03,ENE,68,1.3,1.3,95,0.00,,---,0.01,VWS V14.01,2013-07-30 09:31:00,
2013-07-30 04:36:00,64.6,63.1,30.04,ESE,112,1.8,1.8,95,0.00,,---,0.01,VWS V14.01,2013-07-30 09:36:00,
2013-07-30 04:41:00,64.6,63.1,30.04,ENE,68,3.4,3.4,95,0.00,,---,0.01,VWS V14.01,2013-07-30 09:41:00,
2013-07-30 04:46:00,64.6,63.1,30.03,NE,45,1.8,1.8,95,0.00,,---,0.01,VWS V14.01,2013-07-30 09:46:00,
2013-07-30 04:51:00,64.8,63.0,30.03,ENE,68,3.6,3.6,94,0.00,,---,0.01,VWS V14.01,2013-07-30 09:51:00,
2013-07-30 04:56:00,64.8,63.3,30.03,NE,45,0.4,2.2,95,0.00,,---,0.01,VWS V14.01,2013-07-30 09:56:00,
2013-07-30 05:02:00,64.8,63.3,30.03,NNE,22,1.3,1.3,95,0.00,,---,0.01,VWS V14.01,2013-07-30 10:02:00,
2013-07-30 05:07:00,64.6,63.1,30.03,East,90,1.1,1.1,95,0.00,,---,0.01,VWS V14.01,2013-07-30 10:07:00,
2013-07-30 05:12:00,64.6,63.1,30.03,NE,45,3.4,3.4,95,0.00,,---,0.01,VWS V14.01,2013-07-30 10:12:00,
2013-07-30 05:17:00,64.6,63.1,30.04,ESE,112,1.8,1.8,95,0.00,,---,0.01,VWS V14.01,2013-07-30 10:17:00,
2013-07-30 05:22:00,64.6,63.1,30.04,NNE,22,1.8,1.8,95,0.00,,---,0.01,VWS V14.01,2013-07-30 10:22:00,
2013-07-30 05:27:00,64.6,63.1,30.04,East,90,0.0,0.0,95,0.00,,---,0.01,VWS V14.01,2013-07-30 10:27:00,
2013-07-30 05:32:00,64.6,63.1,30.04,ENE,68,0.4,0.4,95,0.00,,---,0.01,VWS V14.01,2013-07-30 10:32:00,
2013-07-30 05:37:00,64.6,63.1,30.04,East,90,0.4,0.4,95,0.00,,---,0.01,VWS V14.01,2013-07-30 10:37:00,
2013-07-30 05:42:00,64.6,63.1,30.05,ENE,68,2.9,2.9,95,0.00,,---,0.01,VWS V14.01,2013-07-30 10:42:00,
2013-07-30 05:47:00,64.6,63.1,30.04,East,90,1.8,1.8,95,0.00,,---,0.01,VWS V14.01,2013-07-30 10:47:00,
2013-07-30 05:52:00,64.6,63.1,30.05,ENE,68,2.2,2.2,95,0.00,,---,0.01,VWS V14.01,2013-07-30 10:52:00,
2013-07-30 05:57:00,64.6,63.1,30.05,ENE,68,1.6,1.6,95,0.00,,---,0.01,VWS V14.01,2013-07-30 10:57:00,
2013-07-30 06:02:00,64.6,63.1,30.05,NE,45,0.2,0.2,95,0.00,,---,0.01,VWS V14.01,2013-07-30 11:02:00,
2013-07-30 06:07:00,64.6,63.1,30.05,NNE,22,1.8,1.8,95,0.00,,---,0.01,VWS V14.01,2013-07-30 11:07:00,
2013-07-30 06:12:00,64.6,63.1,30.05,East,90,0.0,0.0,95,0.00,,---,0.01,VWS V14.01,2013-07-30 11:12:00,
2013-07-30 06:17:00,64.6,63.1,30.05,North,0,0.2,0.2,95,0.00,,---,0.01,VWS V14.01,2013-07-30 11:17:00,
2013-07-30 06:22:00,64.6,63.1,30.05,NNE,22,0.0,0.0,95,0.00,,---,0.01,VWS V14.01,2013-07-30 11:22:00,
2013-07-30 06:27:00,64.6,63.1,30.05,ENE,68,2.2,2.2,95,0.00,,---,0.01,VWS V14.01,2013-07-30 11:27:00,
2013-07-30 06:32:00,64.6,63.1,30.05,NE,45,0.2,0.2,95,0.00,,---,0.01,VWS V14.01,2013-07-30 11:32:00,
2013-07-30 06:38:00,64.6,63.1,30.05,ENE,68,1.8,1.8,95,0.00,,---,0.01,VWS V14.01,2013-07-30 11:38:00,
2013-07-30 06:43:00,64.6,63.1,30.05,NE,45,0.4,0.4,95,0.00,,---,0.01,VWS V14.01,2013-07-30 11:43:00,
2013-07-30 06:48:00,64.6,63.1,30.06,NE,45,0.2,0.2,95,0.00,,---,0.01,VWS V14.01,2013-07-30 11:48:00,
2013-07-30 06:53:00,64.6,63.1,30.06,ENE,68,0.4,0.4,95,0.00,,---,0.01,VWS V14.01,2013-07-30 11:53:00,
2013-07-30 06:58:00,64.6,63.1,30.06,East,90,0.9,0.9,95,0.00,,---,0.01,VWS V14.01,2013-07-30 11:58:00,
2013-07-30 07:03:00,64.4,63.2,30.06,NNE,22,0.4,0.4,96,0.00,,---,0.01,VWS V14.01,2013-07-30 12:03:00,
2013-07-30 07:08:00,64.6,63.4,30.06,ENE,68,0.4,0.4,96,0.00,,---,0.01,VWS V14.01,2013-07-30 12:08:00,
2013-07-30 07:13:00,64.6,63.4,30.06,NE,45,1.1,1.1,96,0.00,,---,0.01,VWS V14.01,2013-07-30 12:13:00,
2013-07-30 07:18:00,64.6,63.4,30.06,NE,45,1.1,1.1,96,0.00,,---,0.01,VWS V14.01,2013-07-30 12:18:00,
2013-07-30 07:23:00,64.6,63.4,30.06,NE,45,0.0,0.0,96,0.00,,---,0.01,VWS V14.01,2013-07-30 12:23:00,
2013-07-30 07:28:00,64.8,63.6,30.06,East,90,1.3,1.3,96,0.00,,---,0.01,VWS V14.01,2013-07-30 12:28:00,
2013-07-30 07:33:00,64.6,63.4,30.06,NNE,22,1.1,1.1,96,0.00,,---,0.01,VWS V14.01,2013-07-30 12:33:00,
2013-07-30 07:38:00,64.6,63.4,30.06,ENE,68,0.7,0.7,96,0.00,,---,0.01,VWS V14.01,2013-07-30 12:38:00,
2013-07-30 07:43:00,64.6,63.4,30.06,NE,45,0.9,0.9,96,0.00,,---,0.01,VWS V14.01,2013-07-30 12:43:00,
2013-07-30 07:48:00,64.8,63.6,30.06,North,0,0.0,0.0,96,0.00,,---,0.01,VWS V14.01,2013-07-30 12:48:00,
2013-07-30 07:53:00,64.8,63.6,30.07,NNE,22,0.0,0.0,96,0.00,,---,0.01,VWS V14.01,2013-07-30 12:53:00,
2013-07-30 07:58:00,64.8,63.6,30.07,NNE,22,0.0,0.0,96,0.00,,---,0.01,VWS V14.01,2013-07-30 12:58:00,
2013-07-30 08:03:00,64.8,63.6,30.07,ENE,68,0.0,0.0,96,0.00,,---,0.01,VWS V14.01,2013-07-30 13:03:00,
2013-07-30 08:08:00,65.0,63.8,30.07,ENE,68,1.6,1.6,96,0.00,,---,0.01,VWS V14.01,2013-07-30 13:08:00,
2013-07-30 08:13:00,65.0,63.8,30.07,NE,45,1.8,1.8,96,0.00,,---,0.01,VWS V14.01,2013-07-30 13:13:00,
2013-07-30 08:18:00,65.0,63.8,30.07,NNE,22,2.0,2.0,96,0.00,,---,0.01,VWS V14.01,2013-07-30 13:18:00,
2013-07-30 08:23:00,65.2,64.0,30.07,NE,45,1.1,1.1,96,0.00,,---,0.01,VWS V14.01,2013-07-30 13:23:00,
2013-07-30 08:28:00,65.2,64.0,30.08,ENE,68,1.1,1.1,96,0.00,,---,0.01,VWS V14.01,2013-07-30 13:28:00,
2013-07-30 08:34:00,65.5,64.3,30.07,East,90,0.0,0.0,96,0.00,,---,0.01,VWS V14.01,2013-07-30 13:34:00,
2013-07-30 08:39:00,65.5,64.3,30.07,North,0,0.7,0.7,96,0.00,,---,0.01,VWS V14.01,2013-07-30 13:39:00,
2013-07-30 08:44:00,65.5,64.3,30.07,ENE,68,1.6,1.6,96,0.00,,---,0.01,VWS V14.01,2013-07-30 13:44:00,
2013-07-30 08:49:00,65.7,64.5,30.07,ENE,68,0.7,0.7,96,0.00,,---,0.01,VWS V14.01,2013-07-30 13:49:00,
2013-07-30 08:54:00,65.9,64.7,30.08,ENE,68,0.4,0.4,96,0.00,,---,0.01,VWS V14.01,2013-07-30 13:54:00,
2013-07-30 08:59:00,65.9,64.7,30.07,SE,135,2.5,2.5,96,0.00,,---,0.01,VWS V14.01,2013-07-30 13:59:00,
2013-07-30 09:04:00,65.7,64.5,30.07,NNE,22,1.1,1.1,96,0.00,,---,0.01,VWS V14.01,2013-07-30 14:04:00,
2013-07-30 09:09:00,65.9,64.7,30.08,East,90,2.0,2.0,96,0.00,,---,0.01,VWS V14.01,2013-07-30 14:09:00,
2013-07-30 09:14:00,66.1,64.6,30.08,NE,45,0.0,0.0,95,0.00,,---,0.01,VWS V14.01,2013-07-30 14:14:00,
2013-07-30 09:19:00,66.2,64.7,30.07,NNE,22,0.2,0.2,95,0.00,,---,0.01,VWS V14.01,2013-07-30 14:19:00,
2013-07-30 09:24:00,66.4,64.9,30.08,ENE,68,1.8,1.8,95,0.00,,---,0.01,VWS V14.01,2013-07-30 14:24:00,
2013-07-30 09:29:00,66.4,64.9,30.08,NE,45,1.3,1.3,95,0.00,,---,0.01,VWS V14.01,2013-07-30 14:29:00,
2013-07-30 09:34:00,66.8,65.3,30.07,ENE,68,1.8,1.8,95,0.00,,---,0.01,VWS V14.01,2013-07-30 14:34:00,
2013-07-30 09:39:00,67.0,65.5,30.08,ESE,112,1.1,1.1,95,0.00,,---,0.01,VWS V14.01,2013-07-30 14:39:00,
2013-07-30 09:44:00,67.1,65.6,30.08,ENE,68,2.5,2.5,95,0.00,,---,0.01,VWS V14.01,2013-07-30 14:44:00,
2013-07-30 09:49:00,67.3,65.5,30.08,NNE,22,2.0,2.0,94,0.00,,---,0.01,VWS V14.01,2013-07-30 14:49:00,
2013-07-30 09:54:00,67.5,65.7,30.08,North,0,2.0,2.0,94,0.00,,---,0.01,VWS V14.01,2013-07-30 14:54:00,
2013-07-30 10:00:00,67.5,65.4,30.08,NNE,22,0.4,0.4,93,0.00,,---,0.01,VWS V14.01,2013-07-30 15:00:00,
2013-07-30 10:05:00,67.9,65.8,30.08,ESE,112,3.8,3.8,93,0.00,,---,0.01,VWS V14.01,2013-07-30 15:05:00,
2013-07-30 10:10:00,68.2,65.5,30.08,ESE,112,4.5,4.5,91,0.00,,---,0.01,VWS V14.01,2013-07-30 15:10:00,
2013-07-30 10:15:00,68.4,65.7,30.07,NNE,22,3.8,3.8,91,0.00,,---,0.01,VWS V14.01,2013-07-30 15:15:00,
2013-07-30 10:20:00,68.8,66.1,30.07,WNW,292,0.7,0.7,91,0.00,,---,0.01,VWS V14.01,2013-07-30 15:20:00,
2013-07-30 10:25:00,69.5,66.4,30.07,NNE,22,1.6,1.6,90,0.00,,---,0.01,VWS V14.01,2013-07-30 15:25:00,
2013-07-30 10:30:00,69.8,66.1,30.07,North,0,6.9,6.9,88,0.00,,---,0.01,VWS V14.01,2013-07-30 15:30:00,
2013-07-30 10:35:00,70.0,66.0,30.07,East,90,1.6,6.3,87,0.00,,---,0.01,VWS V14.01,2013-07-30 15:35:00,
2013-07-30 10:40:00,69.8,65.4,30.07,NE,45,9.2,9.6,86,0.00,,---,0.01,VWS V14.01,2013-07-30 15:40:00,
2013-07-30 10:45:00,70.2,65.8,30.07,ESE,112,4.0,6.0,86,0.00,,---,0.01,VWS V14.01,2013-07-30 15:45:00,
2013-07-30 10:50:00,70.6,65.9,30.07,NE,45,4.5,4.5,85,0.00,,---,0.01,VWS V14.01,2013-07-30 15:50:00,
2013-07-30 10:55:00,70.2,65.1,30.07,ENE,68,10.1,10.1,84,0.00,,---,0.01,VWS V14.01,2013-07-30 15:55:00,
2013-07-30 11:00:00,70.0,65.6,30.07,NNE,22,1.8,1.8,86,0.00,,---,0.01,VWS V14.01,2013-07-30 16:00:00,
2013-07-30 11:05:00,70.2,65.8,30.08,ENE,68,3.1,3.1,86,0.00,,---,0.01,VWS V14.01,2013-07-30 16:05:00,
2013-07-30 11:10:00,70.2,65.8,30.08,North,0,2.9,2.9,86,0.00,,---,0.01,VWS V14.01,2013-07-30 16:10:00,
2013-07-30 11:15:00,70.0,65.3,30.08,WNW,292,3.4,3.4,85,0.00,,---,0.01,VWS V14.01,2013-07-30 16:15:00,
2013-07-30 11:20:00,70.2,65.1,30.08,NE,45,8.1,8.1,84,0.00,,---,0.01,VWS V14.01,2013-07-30 16:20:00,
2013-07-30 11:26:00,70.6,65.5,30.08,NW,315,3.8,3.8,84,0.00,,---,0.01,VWS V14.01,2013-07-30 16:26:00,
2013-07-30 11:31:00,70.6,65.5,30.08,East,90,7.8,7.8,84,0.00,,---,0.01,VWS V14.01,2013-07-30 16:31:00,
2013-07-30 11:36:00,70.9,65.8,30.08,NNE,22,5.1,5.1,84,0.00,,---,0.01,VWS V14.01,2013-07-30 16:36:00,
2013-07-30 11:41:00,70.9,65.8,30.08,NE,45,3.4,3.4,84,0.00,,---,0.01,VWS V14.01,2013-07-30 16:41:00,
2013-07-30 11:46:00,70.9,65.5,30.08,East,90,6.5,6.5,83,0.00,,---,0.01,VWS V14.01,2013-07-30 16:46:00,
2013-07-30 11:51:00,71.3,65.5,30.08,NNW,338,5.1,5.1,82,0.00,,---,0.01,VWS V14.01,2013-07-30 16:51:00,
2013-07-30 11:56:00,71.1,65.7,30.08,WNW,292,3.4,3.4,83,0.00,,---,0.01,VWS V14.01,2013-07-30 16:56:00,
2013-07-30 12:01:00,71.3,65.9,30.08,NNE,22,1.1,1.1,83,0.00,,---,0.01,VWS V14.01,2013-07-30 17:01:00,
2013-07-30 12:06:00,71.6,65.8,30.08,NE,45,1.1,1.1,82,0.00,,---,0.01,VWS V14.01,2013-07-30 17:06:00,
2013-07-30 12:11:00,71.5,65.7,30.08,South,180,2.2,2.2,82,0.00,,---,0.01,VWS V14.01,2013-07-30 17:11:00,
2013-07-30 12:16:00,71.5,65.7,30.08,NE,45,5.6,5.6,82,0.00,,---,0.01,VWS V14.01,2013-07-30 17:16:00,
2013-07-30 12:21:00,71.5,65.7,30.08,ENE,68,6.7,6.7,82,0.00,,---,0.01,VWS V14.01,2013-07-30 17:21:00,
2013-07-30 12:26:00,71.3,65.9,30.08,East,90,4.5,4.5,83,0.00,,---,0.01,VWS V14.01,2013-07-30 17:26:00,
2013-07-30 12:31:00,71.5,65.7,30.08,NNE,22,9.2,9.2,82,0.00,,---,0.01,VWS V14.01,2013-07-30 17:31:00,
2013-07-30 12:36:00,71.6,65.8,30.08,NE,45,2.2,2.2,82,0.00,,---,0.01,VWS V14.01,2013-07-30 17:36:00,
2013-07-30 12:42:00,71.8,66.0,30.08,NE,45,4.3,4.3,82,0.00,,---,0.01,VWS V14.01,2013-07-30 17:42:00,
2013-07-30 12:47:00,72.0,65.9,30.08,ENE,68,4.3,6.9,81,0.00,,---,0.01,VWS V14.01,2013-07-30 17:47:00,
2013-07-30 12:52:00,71.8,65.7,30.08,NE,45,4.0,4.0,81,0.00,,---,0.01,VWS V14.01,2013-07-30 17:52:00,
2013-07-30 12:57:00,71.8,65.7,30.08,ENE,68,8.1,8.1,81,0.00,,---,0.01,VWS V14.01,2013-07-30 17:57:00,
2013-07-30 13:03:00,72.0,66.2,30.08,ESE,112,0.9,2.5,82,0.00,,---,0.01,VWS V14.01,2013-07-30 18:03:00,
2013-07-30 13:08:00,72.4,65.9,30.08,ENE,68,3.4,3.4,80,0.00,,---,0.01,VWS V14.01,2013-07-30 18:08:00,
2013-07-30 13:13:00,72.4,65.9,30.08,NE,45,2.7,2.7,80,0.00,,---,0.01,VWS V14.01,2013-07-30 18:13:00,
2013-07-30 13:18:00,72.2,65.7,30.08,SE,135,0.4,0.4,80,0.00,,---,0.01,VWS V14.01,2013-07-30 18:18:00,
2013-07-30 13:23:00,72.5,66.3,30.08,NNW,338,0.7,0.7,81,0.00,,---,0.01,VWS V14.01,2013-07-30 18:23:00,
2013-07-30 13:28:00,72.4,65.5,30.08,NE,45,3.1,3.1,79,0.00,,---,0.01,VWS V14.01,2013-07-30 18:28:00,
2013-07-30 13:33:00,72.4,65.9,30.07,ESE,112,5.6,5.6,80,0.00,,---,0.01,VWS V14.01,2013-07-30 18:33:00,
2013-07-30 13:37:00,72.4,65.9,30.08,NNE,22,1.1,1.1,80,0.00,,---,0.01,VWS V14.01,2013-07-30 18:37:00,
2013-07-30 13:42:00,72.7,66.5,30.08,SE,135,2.9,2.9,81,0.00,,---,0.01,VWS V14.01,2013-07-30 18:42:00,
2013-07-30 13:47:00,72.7,65.8,30.08,North,0,1.8,1.8,79,0.00,,---,0.01,VWS V14.01,2013-07-30 18:47:00,
2013-07-30 13:52:00,73.1,66.2,30.08,ESE,112,0.0,6.3,79,0.00,,---,0.01,VWS V14.01,2013-07-30 18:52:00,
2013-07-30 13:57:00,73.6,66.3,30.08,ENE,68,1.3,3.4,78,0.00,,---,0.01,VWS V14.01,2013-07-30 18:57:00,
2013-07-30 14:02:00,74.2,66.5,30.07,NE,45,1.6,1.6,77,0.00,,---,0.01,VWS V14.01,2013-07-30 19:02:00,
2013-07-30 14:07:00,74.3,66.6,30.07,North,0,2.5,2.5,77,0.00,,---,0.01,VWS V14.01,2013-07-30 19:07:00,
2013-07-30 14:12:00,74.2,66.5,30.07,NE,45,0.4,0.4,77,0.00,,---,0.01,VWS V14.01,2013-07-30 19:12:00,
2013-07-30 14:17:00,74.3,66.6,30.07,ENE,68,0.7,0.7,77,0.00,,---,0.01,VWS V14.01,2013-07-30 19:17:00,
2013-07-30 14:22:00,74.3,66.6,30.07,ENE,68,1.8,1.8,77,0.00,,---,0.01,VWS V14.01,2013-07-30 19:22:00,
2013-07-30 14:27:00,74.5,66.8,30.07,North,0,2.2,2.2,77,0.00,,---,0.01,VWS V14.01,2013-07-30 19:27:00,
2013-07-30 14:32:00,74.3,66.2,30.07,NNE,22,5.1,5.1,76,0.00,,---,0.01,VWS V14.01,2013-07-30 19:32:00,
2013-07-30 14:37:00,74.7,66.6,30.07,North,0,1.6,1.6,76,0.00,,---,0.01,VWS V14.01,2013-07-30 19:37:00,
2013-07-30 14:43:00,75.4,66.9,30.07,ESE,112,0.2,0.2,75,0.00,,---,0.01,VWS V14.01,2013-07-30 19:43:00,
2013-07-30 14:48:00,75.6,67.1,30.07,NNW,338,2.2,2.5,75,0.00,,---,0.01,VWS V14.01,2013-07-30 19:48:00,
2013-07-30 14:53:00,75.2,66.7,30.07,ENE,68,3.8,4.3,75,0.00,,---,0.01,VWS V14.01,2013-07-30 19:53:00,
2013-07-30 14:58:00,74.7,66.6,30.07,ENE,68,7.8,7.8,76,0.00,,---,0.01,VWS V14.01,2013-07-30 19:58:00,
2013-07-30 15:03:00,74.5,66.1,30.07,NE,45,9.8,9.8,75,0.00,,---,0.01,VWS V14.01,2013-07-30 20:03:00,
2013-07-30 15:08:00,74.5,66.4,30.07,NE,45,2.9,2.9,76,0.00,,---,0.01,VWS V14.01,2013-07-30 20:08:00,
2013-07-30 15:13:00,74.5,66.4,30.07,ENE,68,0.4,0.4,76,0.00,,---,0.01,VWS V14.01,2013-07-30 20:13:00,
2013-07-30 15:18:00,74.9,66.8,30.07,NNW,338,3.4,3.4,76,0.00,,---,0.01,VWS V14.01,2013-07-30 20:18:00,
2013-07-30 15:23:00,74.7,66.3,30.07,SSE,158,1.8,1.8,75,0.00,,---,0.01,VWS V14.01,2013-07-30 20:23:00,
2013-07-30 15:28:00,74.3,66.6,30.07,North,0,3.4,3.4,77,0.00,,---,0.01,VWS V14.01,2013-07-30 20:28:00,
2013-07-30 15:33:00,74.7,66.6,30.07,ESE,112,0.7,0.7,76,0.00,,---,0.01,VWS V14.01,2013-07-30 20:33:00,
2013-07-30 15:38:00,75.1,66.6,30.07,ESE,112,5.4,5.4,75,0.00,,---,0.01,VWS V14.01,2013-07-30 20:38:00,
2013-07-30 15:43:00,75.2,67.1,30.07,NNE,22,5.4,5.4,76,0.00,,---,0.01,VWS V14.01,2013-07-30 20:43:00,
2013-07-30 15:48:00,74.7,66.6,30.07,NE,45,4.0,4.0,76,0.00,,---,0.01,VWS V14.01,2013-07-30 20:48:00,
2013-07-30 15:53:00,74.7,66.6,30.07,ESE,112,0.2,0.2,76,0.00,,---,0.01,VWS V14.01,2013-07-30 20:53:00,
2013-07-30 15:59:00,74.7,66.3,30.07,North,0,1.1,1.1,75,0.00,,---,0.01,VWS V14.01,2013-07-30 20:59:00,
2013-07-30 16:04:00,74.5,66.1,30.07,North,0,3.1,3.1,75,0.00,,---,0.01,VWS V14.01,2013-07-30 21:04:00,
2013-07-30 16:09:00,74.5,66.1,30.07,WNW,292,1.8,1.8,75,0.00,,---,0.01,VWS V14.01,2013-07-30 21:09:00,
2013-07-30 16:14:00,74.3,66.2,30.07,ENE,68,2.7,2.7,76,0.00,,---,0.01,VWS V14.01,2013-07-30 21:14:00,
2013-07-30 16:19:00,74.2,66.5,30.07,WSW,248,8.9,8.9,77,0.00,,---,0.01,VWS V14.01,2013-07-30 21:19:00,
2013-07-30 16:24:00,74.2,66.5,30.07,East,90,1.3,1.3,77,0.00,,---,0.01,VWS V14.01,2013-07-30 21:24:00,
2013-07-30 16:29:00,74.0,66.3,30.07,NE,45,3.1,3.1,77,0.00,,---,0.01,VWS V14.01,2013-07-30 21:29:00,
2013-07-30 16:34:00,74.2,66.5,30.07,East,90,2.9,2.9,77,0.00,,---,0.01,VWS V14.01,2013-07-30 21:34:00,
2013-07-30 16:39:00,74.0,66.3,30.07,ENE,68,2.5,2.5,77,0.00,,---,0.01,VWS V14.01,2013-07-30 21:39:00,
2013-07-30 16:44:00,74.2,66.2,30.07,ENE,68,0.4,0.4,76,0.00,,---,0.01,VWS V14.01,2013-07-30 21:44:00,
2013-07-30 16:49:00,74.2,66.2,30.07,East,90,4.0,4.0,76,0.00,,---,0.01,VWS V14.01,2013-07-30 21:49:00,
2013-07-30 16:54:00,74.2,66.2,30.06,NE,45,1.8,1.8,76,0.00,,---,0.01,VWS V14.01,2013-07-30 21:54:00,
2013-07-30 16:59:00,74.2,66.5,30.07,ESE,112,2.5,2.5,77,0.00,,---,0.01,VWS V14.01,2013-07-30 21:59:00,
2013-07-30 17:04:00,74.0,66.3,30.06,North,0,2.5,2.5,77,0.00,,---,0.01,VWS V14.01,2013-07-30 22:04:00,
2013-07-30 17:09:00,74.0,66.7,30.06,ENE,68,2.0,2.0,78,0.00,,---,0.01,VWS V14.01,2013-07-30 22:09:00,
2013-07-30 17:14:00,74.0,66.7,30.06,ENE,68,4.3,4.3,78,0.00,,---,0.01,VWS V14.01,2013-07-30 22:14:00,
2013-07-30 17:19:00,74.0,66.0,30.06,WSW,248,2.7,2.7,76,0.00,,---,0.01,VWS V14.01,2013-07-30 22:19:00,
2013-07-30 17:24:00,74.0,66.3,30.06,East,90,4.0,4.0,77,0.00,,---,0.01,VWS V14.01,2013-07-30 22:24:00,
2013-07-30 17:29:00,73.8,65.8,30.06,East,90,2.5,2.5,76,0.00,,---,0.01,VWS V14.01,2013-07-30 22:29:00,
2013-07-30 17:34:00,74.0,66.3,30.06,ESE,112,1.1,1.1,77,0.00,,---,0.01,VWS V14.01,2013-07-30 22:34:00,
2013-07-30 17:39:00,74.3,66.2,30.06,ENE,68,0.2,0.2,76,0.00,,---,0.01,VWS V14.01,2013-07-30 22:39:00,
2013-07-30 17:44:00,74.5,66.4,30.06,East,90,4.0,4.0,76,0.00,,---,0.01,VWS V14.01,2013-07-30 22:44:00,
2013-07-30 17:49:00,74.5,66.4,30.06,NW,315,1.1,1.1,76,0.00,,---,0.01,VWS V14.01,2013-07-30 22:49:00,
2013-07-30 17:54:00,74.5,66.4,30.05,NE,45,3.4,3.4,76,0.00,,---,0.01,VWS V14.01,2013-07-30 22:54:00,
2013-07-30 17:59:00,74.5,66.4,30.06,ESE,112,1.3,1.3,76,0.00,,---,0.01,VWS V14.01,2013-07-30 22:59:00,
2013-07-30 18:04:00,74.3,66.2,30.06,NE,45,2.5,2.5,76,0.00,,---,0.01,VWS V14.01,2013-07-30 23:04:00,
2013-07-30 18:09:00,74.2,66.5,30.05,East,90,4.0,4.0,77,0.00,,---,0.01,VWS V14.01,2013-07-30 23:09:00,
2013-07-30 18:15:00,74.2,66.5,30.06,ENE,68,1.3,1.3,77,0.00,,---,0.01,VWS V14.01,2013-07-30 23:15:00,
2013-07-30 18:20:00,74.2,66.5,30.05,SE,135,0.9,0.9,77,0.00,,---,0.01,VWS V14.01,2013-07-30 23:20:00,
2013-07-30 18:25:00,74.5,66.4,30.05,ENE,68,3.8,3.8,76,0.00,,---,0.01,VWS V14.01,2013-07-30 23:25:00,
2013-07-30 18:30:00,74.3,66.2,30.05,ESE,112,3.4,3.4,76,0.00,,---,0.01,VWS V14.01,2013-07-30 23:30:00,
2013-07-30 18:35:00,74.3,66.2,30.05,East,90,3.1,3.1,76,0.00,,---,0.01,VWS V14.01,2013-07-30 23:35:00,
2013-07-30 18:40:00,74.2,66.2,30.05,NE,45,2.5,2.5,76,0.00,,---,0.01,VWS V14.01,2013-07-30 23:40:00,
2013-07-30 18:45:00,74.2,65.8,30.05,NNE,22,1.8,1.8,75,0.00,,---,0.01,VWS V14.01,2013-07-30 23:45:00,
2013-07-30 18:50:00,74.2,65.8,30.05,East,90,3.4,3.4,75,0.00,,---,0.01,VWS V14.01,2013-07-30 23:50:00,
2013-07-30 18:55:00,74.0,66.0,30.05,ENE,68,0.0,0.0,76,0.00,,---,0.01,VWS V14.01,2013-07-30 23:55:00,
2013-07-30 19:00:00,73.8,65.8,30.06,ESE,112,3.6,3.6,76,0.00,,---,0.01,VWS V14.01,2013-07-31 00:00:00,
2013-07-30 19:05:00,73.6,65.9,30.06,East,90,0.0,0.0,77,0.00,,---,0.01,VWS V14.01,2013-07-31 00:05:00,
2013-07-30 19:10:00,73.6,65.6,30.06,NNE,22,1.1,1.1,76,0.00,,---,0.01,VWS V14.01,2013-07-31 00:10:00,
2013-07-30 19:15:00,73.6,65.6,30.07,NE,45,3.4,3.4,76,0.00,,---,0.01,VWS V14.01,2013-07-31 00:15:00,
2013-07-30 19:20:00,73.4,65.8,30.07,ESE,112,3.4,3.4,77,0.00,,---,0.01,VWS V14.01,2013-07-31 00:20:00,
2013-07-30 19:25:00,73.4,65.8,30.08,East,90,3.6,3.6,77,0.00,,---,0.01,VWS V14.01,2013-07-31 00:25:00,
2013-07-30 19:30:00,73.3,66.0,30.08,NNW,338,0.2,0.2,78,0.00,,---,0.01,VWS V14.01,2013-07-31 00:30:00,
2013-07-30 19:36:00,73.1,65.8,30.08,NE,45,2.9,2.9,78,0.00,,---,0.01,VWS V14.01,2013-07-31 00:36:00,
2013-07-30 19:41:00,73.1,65.8,30.07,ENE,68,4.7,4.7,78,0.00,,---,0.01,VWS V14.01,2013-07-31 00:41:00,
2013-07-30 19:46:00,72.9,66.0,30.07,NE,45,0.7,0.7,79,0.00,,---,0.01,VWS V14.01,2013-07-31 00:46:00,
2013-07-30 19:51:00,72.9,66.0,30.08,NE,45,1.8,1.8,79,0.00,,---,0.01,VWS V14.01,2013-07-31 00:51:00,
2013-07-30 19:56:00,72.7,65.8,30.08,North,0,0.4,0.4,79,0.00,,---,0.01,VWS V14.01,2013-07-31 00:56:00,
2013-07-30 20:01:00,72.7,66.2,30.09,East,90,1.1,1.1,80,0.00,,---,0.01,VWS V14.01,2013-07-31 01:01:00,
2013-07-30 20:06:00,72.7,66.2,30.09,NNE,22,4.0,4.0,80,0.00,,---,0.01,VWS V14.01,2013-07-31 01:06:00,
2013-07-30 20:11:00,72.5,66.0,30.09,NNE,22,1.8,1.8,80,0.00,,---,0.01,VWS V14.01,2013-07-31 01:11:00,
2013-07-30 20:16:00,72.4,65.5,30.09,ENE,68,1.1,4.3,79,0.00,,---,0.01,VWS V14.01,2013-07-31 01:16:00,
2013-07-30 20:21:00,72.4,65.5,30.09,East,90,4.7,4.7,79,0.00,,---,0.01,VWS V14.01,2013-07-31 01:21:00,
2013-07-30 20:26:00,72.4,65.5,30.09,NE,45,3.4,3.4,79,0.00,,---,0.01,VWS V14.01,2013-07-31 01:26:00,
2013-07-30 20:31:00,72.2,65.0,30.09,NE,45,2.2,2.2,78,0.00,,---,0.01,VWS V14.01,2013-07-31 01:31:00,
2013-07-30 20:36:00,72.2,65.0,30.09,ENE,68,1.8,1.8,78,0.00,,---,0.01,VWS V14.01,2013-07-31 01:36:00,
2013-07-30 20:41:00,72.0,65.1,30.09,NE,45,0.0,0.0,79,0.00,,---,0.01,VWS V14.01,2013-07-31 01:41:00,
2013-07-30 20:46:00,72.0,65.1,30.09,NE,45,0.7,2.7,79,0.00,,---,0.01,VWS V14.01,2013-07-31 01:46:00,
2013-07-30 20:51:00,72.0,65.1,30.09,ESE,112,2.9,2.9,79,0.00,,---,0.01,VWS V14.01,2013-07-31 01:51:00,
2013-07-30 20:56:00,72.0,65.1,30.10,NE,45,2.5,2.5,79,0.00,,---,0.01,VWS V14.01,2013-07-31 01:56:00,
2013-07-30 21:01:00,71.8,64.9,30.10,NE,45,0.0,0.0,79,0.00,,---,0.01,VWS V14.01,2013-07-31 02:01:00,
2013-07-30 21:06:00,71.8,64.9,30.11,NE,45,0.2,0.2,79,0.00,,---,0.01,VWS V14.01,2013-07-31 02:06:00,
2013-07-30 21:11:00,71.8,64.9,30.11,NE,45,3.8,3.8,79,0.00,,---,0.01,VWS V14.01,2013-07-31 02:11:00,
2013-07-30 21:17:00,71.8,64.9,30.11,NNE,22,1.8,1.8,79,0.00,,---,0.01,VWS V14.01,2013-07-31 02:17:00,
2013-07-30 21:22:00,71.8,64.9,30.11,NNE,22,3.4,3.4,79,0.00,,---,0.01,VWS V14.01,2013-07-31 02:22:00,
2013-07-30 21:27:00,71.8,64.9,30.10,ENE,68,1.3,1.3,79,0.00,,---,0.01,VWS V14.01,2013-07-31 02:27:00,
2013-07-30 21:32:00,71.8,64.9,30.11,NE,45,0.9,0.9,79,0.00,,---,0.01,VWS V14.01,2013-07-31 02:32:00,
2013-07-30 21:37:00,71.8,64.9,30.12,NE,45,2.0,2.0,79,0.00,,---,0.01,VWS V14.01,2013-07-31 02:37:00,
2013-07-30 21:42:00,71.6,64.8,30.12,NE,45,1.1,1.1,79,0.00,,---,0.01,VWS V14.01,2013-07-31 02:42:00,
2013-07-30 21:47:00,71.6,64.8,30.12,ENE,68,0.7,0.7,79,0.00,,---,0.01,VWS V14.01,2013-07-31 02:47:00,
2013-07-30 21:52:00,71.6,64.8,30.12,NE,45,0.4,0.4,79,0.00,,---,0.01,VWS V14.01,2013-07-31 02:52:00,
2013-07-30 21:57:00,71.6,65.1,30.12,NE,45,3.1,3.1,80,0.00,,---,0.01,VWS V14.01,2013-07-31 02:57:00,
2013-07-30 22:02:00,71.6,65.1,30.12,ENE,68,1.8,1.8,80,0.00,,---,0.01,VWS V14.01,2013-07-31 03:02:00,
2013-07-30 22:07:00,71.5,65.0,30.12,ENE,68,0.0,0.0,80,0.00,,---,0.01,VWS V14.01,2013-07-31 03:07:00,
2013-07-30 22:12:00,71.5,65.0,30.12,NW,315,0.4,0.4,80,0.00,,---,0.01,VWS V14.01,2013-07-31 03:12:00,
2013-07-30 22:17:00,71.5,65.0,30.13,NE,45,0.4,0.4,80,0.00,,---,0.01,VWS V14.01,2013-07-31 03:17:00,
2013-07-30 22:22:00,71.5,65.0,30.12,ENE,68,3.4,3.4,80,0.00,,---,0.01,VWS V14.01,2013-07-31 03:22:00,
2013-07-30 22:27:00,71.5,65.0,30.12,North,0,0.2,0.2,80,0.00,,---,0.01,VWS V14.01,2013-07-31 03:27:00,
2013-07-30 22:32:00,71.5,65.0,30.12,ENE,68,1.1,1.1,80,0.00,,---,0.01,VWS V14.01,2013-07-31 03:32:00,
2013-07-30 22:36:00,71.3,64.8,30.12,NE,45,4.7,4.7,80,0.00,,---,0.01,VWS V14.01,2013-07-31 03:36:00,
2013-07-30 22:42:00,71.3,64.8,30.11,NNE,22,0.4,0.4,80,0.00,,---,0.01,VWS V14.01,2013-07-31 03:42:00,
2013-07-30 22:47:00,71.1,65.0,30.11,NNE,22,0.0,0.0,81,0.00,,---,0.01,VWS V14.01,2013-07-31 03:47:00,
2013-07-30 22:52:00,71.1,65.0,30.11,NNE,22,0.0,0.0,81,0.00,,---,0.01,VWS V14.01,2013-07-31 03:52:00,
2013-07-30 22:57:00,70.9,64.8,30.11,WNW,292,0.2,0.2,81,0.00,,---,0.01,VWS V14.01,2013-07-31 03:57:00,
2013-07-30 23:01:00,70.9,64.8,30.11,NNW,338,0.0,0.0,81,0.00,,---,0.01,VWS V14.01,2013-07-31 04:01:00,
2013-07-30 23:02:00,70.9,64.8,30.11,NNW,338,0.0,0.0,81,0.00,,---,0.01,VWS V14.01,2013-07-31 04:02:00,
2013-07-30 23:03:00,70.9,64.8,30.11,NNW,338,0.0,0.0,81,0.00,,---,0.01,VWS V14.01,2013-07-31 04:03:00,
2013-07-30 23:08:00,70.9,64.8,30.11,NNW,338,0.0,0.0,81,0.00,,---,0.01,VWS V14.01,2013-07-31 04:08:00,
2013-07-30 23:13:00,70.7,64.6,30.11,NNW,338,0.4,0.4,81,0.00,,---,0.01,VWS V14.01,2013-07-31 04:13:00,
2013-07-30 23:18:00,70.7,64.6,30.11,NNW,338,0.2,0.2,81,0.00,,---,0.01,VWS V14.01,2013-07-31 04:18:00,
2013-07-30 23:23:00,70.6,64.8,30.11,NNE,22,0.0,0.0,82,0.00,,---,0.01,VWS V14.01,2013-07-31 04:23:00,
2013-07-30 23:28:00,70.4,64.7,30.11,NE,45,0.4,0.4,82,0.00,,---,0.01,VWS V14.01,2013-07-31 04:28:00,
2013-07-30 23:33:00,70.2,64.4,30.10,NE,45,0.0,0.0,82,0.00,,---,0.01,VWS V14.01,2013-07-31 04:33:00,
2013-07-30 23:38:00,70.0,64.3,30.10,NE,45,0.0,0.0,82,0.00,,---,0.01,VWS V14.01,2013-07-31 04:38:00,
2013-07-30 23:43:00,69.7,64.0,30.10,NE,45,0.0,0.0,82,0.00,,---,0.01,VWS V14.01,2013-07-31 04:43:00,
2013-07-30 23:48:00,69.3,63.9,30.10,NE,45,0.0,0.0,83,0.00,,---,0.01,VWS V14.01,2013-07-31 04:48:00,
2013-07-30 23:53:00,69.1,64.1,30.10,NE,45,0.4,0.4,84,0.00,,---,0.01,VWS V14.01,2013-07-31 04:53:00,
2013-07-30 23:58:00,69.1,64.1,30.10,NNE,22,0.0,0.0,84,0.00,,---,0.01,VWS V14.01,2013-07-31 04:58:00,